Time;durP1;ratioP1;P1;durP2;ratioP2;P2;SDS_P1;SDS_P2;PMS_P1;PMS_P2;Temp;Humidity;BMP_temperature;BMP_pressure;BME280_temperature;BME280_humidity;BME280_pressure;Samples;Min_cycle;Max_cycle;Signal;HPM_P1;HPM_P2
2023/03/26 00:02:08;;;;;;;;;0.00;0.00;;;;;;;;6304949;22;45433;-78
2023/03/26 00:04:33;;;;;;;;;0.00;0.00;;;;;;;;6305173;22;45265;-79
2023/03/26 00:06:59;;;;;;;;;0.00;0.00;;;;;;;;6305760;22;45185;-78
2023/03/26 00:09:24;;;;;;;;;0.00;0.00;;;;;;;;6304952;22;45277;-79
2023/03/26 00:11:49;;;;;;;;;0.00;0.00;;;;;;;;6305148;22;45427;-78
2023/03/26 00:14:16;;;;;;;;;2.00;0.00;;;;;;;;6304769;22;46350;-79
2023/03/26 00:16:41;;;;;;;;;0.00;0.00;;;;;;;;6304516;22;45382;-78
2023/03/26 00:19:07;;;;;;;;;0.00;0.00;;;;;;;;6305638;22;45249;-78
2023/03/26 00:21:33;;;;;;;;;0.00;0.00;;;;;;;;6304789;22;45587;-79
2023/03/26 00:24:03;;;;;;;;;0.00;0.00;;;;;;;;6304611;22;45312;-78
2023/03/26 00:26:30;;;;;;;;;0.00;0.00;;;;;;;;6304565;22;45556;-78
2023/03/26 00:28:55;;;;;;;;;1.00;0.00;;;;;;;;6305004;22;45238;-77
2023/03/26 00:31:20;;;;;;;;;0.00;0.00;;;;;;;;6305369;22;45383;-78
2023/03/26 00:33:46;;;;;;;;;0.50;0.00;;;;;;;;6304634;22;47261;-77
2023/03/26 00:36:16;;;;;;;;;2.00;0.00;;;;;;;;6304933;22;45297;-77
2023/03/26 00:38:42;;;;;;;;;1.25;0.00;;;;;;;;6304845;22;45246;-77
2023/03/26 00:41:16;;;;;;;;;1.00;0.00;;;;;;;;6276821;22;45285;-78
2023/03/26 00:43:42;;;;;;;;;1.00;1.00;;;;;;;;6305053;22;45328;-76
2023/03/26 00:46:07;;;;;;;;;0.00;0.00;;;;;;;;6305107;22;45164;-76
2023/03/26 00:48:33;;;;;;;;;0.00;0.00;;;;;;;;6305468;22;45217;-77
2023/03/26 00:50:58;;;;;;;;;1.00;0.00;;;;;;;;6305249;22;45235;-77
2023/03/26 00:53:23;;;;;;;;;0.50;0.00;;;;;;;;6305073;22;46196;-77
2023/03/26 00:55:48;;;;;;;;;1.67;0.00;;;;;;;;6304893;22;45277;-77
2023/03/26 00:58:14;;;;;;;;;0.00;0.00;;;;;;;;6304670;22;45296;-77
2023/03/26 01:00:49;;;;;;;;;0.00;0.00;;;;;;;;6305153;22;45358;-77
2023/03/26 01:03:15;;;;;;;;;0.00;0.00;;;;;;;;6304445;22;47432;-77
2023/03/26 01:05:44;;;;;;;;;0.00;0.00;;;;;;;;6305093;22;45587;-78
2023/03/26 01:08:25;;;;;;;;;0.00;0.00;;;;;;;;6304664;22;45248;-78
2023/03/26 01:10:52;;;;;;;;;0.00;0.00;;;;;;;;6304893;22;45383;-77
2023/03/26 01:13:19;;;;;;;;;0.00;0.00;;;;;;;;6304848;22;45954;-77
2023/03/26 01:15:49;;;;;;;;;5.00;0.00;;;;;;;;6304701;22;45167;-77
2023/03/26 01:18:16;;;;;;;;;0.00;0.00;;;;;;;;6302670;22;45290;-78
2023/03/26 01:20:45;;;;;;;;;5.00;1.00;;;;;;;;6302840;22;45404;-78
2023/03/26 01:23:11;;;;;;;;;0.00;0.00;;;;;;;;6274449;22;47404;-78
2023/03/26 01:25:39;;;;;;;;;0.00;0.00;;;;;;;;6302928;22;45612;-78
2023/03/26 01:28:07;;;;;;;;;2.75;0.00;;;;;;;;6303101;22;45273;-78
2023/03/26 01:30:51;;;;;;;;;0.00;0.00;;;;;;;;6302394;22;45380;-78
2023/03/26 01:33:28;;;;;;;;;0.00;0.00;;;;;;;;6302835;22;46345;-77
2023/03/26 01:36:07;;;;;;;;;2.25;0.00;;;;;;;;6302229;22;45281;-77
2023/03/26 01:38:45;;;;;;;;;1.50;0.00;;;;;;;;6302511;22;45218;-78
2023/03/26 01:41:15;;;;;;;;;1.00;0.00;;;;;;;;6302389;22;45474;-78
2023/03/26 01:43:40;;;;;;;;;0.75;0.00;;;;;;;;6302608;22;46584;-78
2023/03/26 01:46:08;;;;;;;;;5.67;0.33;;;;;;;;6302786;22;45357;-77
2023/03/26 01:48:35;;;;;;;;;0.50;0.00;;;;;;;;6274820;22;45293;-77
2023/03/26 01:51:01;;;;;;;;;0.00;0.00;;;;;;;;6303000;22;45606;-78
2023/03/26 01:53:26;;;;;;;;;3.00;0.00;;;;;;;;6301597;22;46202;-78
2023/03/26 01:55:54;;;;;;;;;1.00;0.00;;;;;;;;6302709;22;45297;-78
2023/03/26 01:58:26;;;;;;;;;1.25;0.50;;;;;;;;6302923;22;45178;-78
2023/03/26 02:01:05;;;;;;;;;1.50;0.00;;;;;;;;6302779;22;45317;-78
2023/03/26 02:03:33;;;;;;;;;0.00;0.00;;;;;;;;6302027;22;47403;-78
2023/03/26 02:06:08;;;;;;;;;0.00;0.00;;;;;;;;6302512;22;45307;-78
2023/03/26 02:08:36;;;;;;;;;1.00;0.00;;;;;;;;6301788;22;45293;-77
2023/03/26 02:11:04;;;;;;;;;1.50;0.50;;;;;;;;6302583;22;45337;-78
2023/03/26 02:13:29;;;;;;;;;1.00;0.00;;;;;;;;6302427;22;46080;-77
2023/03/26 02:16:02;;;;;;;;;0.00;0.00;;;;;;;;6302306;22;45255;-78
2023/03/26 02:18:35;;;;;;;;;0.00;0.00;;;;;;;;6250205;22;1235641;-77
2023/03/26 02:21:05;;;;;;;;;0.50;0.00;;;;;;;;6303930;22;45525;-77
2023/03/26 02:23:34;;;;;;;;;0.00;0.00;;;;;;;;6304151;22;46684;-78
2023/03/26 02:25:59;;;;;;;;;2.00;0.00;;;;;;;;6304226;22;45269;-78
2023/03/26 02:28:25;;;;;;;;;2.00;0.50;;;;;;;;6304401;22;45252;-78
2023/03/26 02:30:51;;;;;;;;;1.50;0.00;;;;;;;;6304860;22;45288;-78
2023/03/26 02:33:16;;;;;;;;;0.75;0.00;;;;;;;;6304020;22;46151;-78
2023/03/26 02:35:44;;;;;;;;;0.67;0.00;;;;;;;;6303779;22;45279;-78
2023/03/26 02:38:13;;;;;;;;;0.00;0.00;;;;;;;;6276585;22;45253;-77
2023/03/26 02:40:38;;;;;;;;;0.00;0.00;;;;;;;;6304584;22;45427;-77
2023/03/26 02:43:03;;;;;;;;;1.00;0.00;;;;;;;;6304095;22;46092;-77
2023/03/26 02:45:29;;;;;;;;;0.00;0.00;;;;;;;;6303562;22;45510;-78
2023/03/26 02:47:54;;;;;;;;;1.00;0.33;;;;;;;;6304051;22;45289;-77
2023/03/26 02:50:19;;;;;;;;;0.00;0.00;;;;;;;;6304101;22;45274;-77
2023/03/26 02:52:48;;;;;;;;;0.00;0.00;;;;;;;;6304353;22;45269;-78
2023/03/26 02:55:13;;;;;;;;;0.75;0.00;;;;;;;;6303857;22;45532;-78
2023/03/26 02:57:38;;;;;;;;;1.67;0.67;;;;;;;;6304724;22;45296;-78
2023/03/26 03:00:13;;;;;;;;;1.00;1.00;;;;;;;;6303883;22;45438;-77
2023/03/26 03:02:38;;;;;;;;;0.00;0.00;;;;;;;;6303766;22;46555;-78
2023/03/26 03:05:04;;;;;;;;;0.00;0.00;;;;;;;;6303310;22;45305;-78
2023/03/26 03:07:29;;;;;;;;;0.00;0.00;;;;;;;;6276372;22;45440;-77
2023/03/26 03:09:55;;;;;;;;;1.00;0.00;;;;;;;;6303869;22;45380;-78
2023/03/26 03:12:20;;;;;;;;;1.00;0.00;;;;;;;;6276296;22;47342;-78
2023/03/26 03:14:45;;;;;;;;;0.00;0.00;;;;;;;;6276264;22;45323;-78
2023/03/26 03:17:10;;;;;;;;;0.00;0.00;;;;;;;;6304177;22;45302;-78
2023/03/26 03:19:36;;;;;;;;;0.33;0.00;;;;;;;;6303386;22;45364;-77
2023/03/26 03:22:01;;;;;;;;;2.00;0.00;;;;;;;;6304177;22;46191;-76
2023/03/26 03:24:27;;;;;;;;;0.00;0.00;;;;;;;;6305579;22;45309;-77
2023/03/26 03:26:56;;;;;;;;;0.00;0.00;;;;;;;;6305534;22;45269;-78
2023/03/26 03:29:22;;;;;;;;;0.50;0.00;;;;;;;;6305097;22;45408;-77
2023/03/26 03:31:47;;;;;;;;;0.00;0.00;;;;;;;;6305089;22;47010;-77
2023/03/26 03:34:13;;;;;;;;;0.00;0.00;;;;;;;;6304590;22;45278;-78
2023/03/26 03:36:38;;;;;;;;;0.00;0.00;;;;;;;;6305790;22;45212;-78
2023/03/26 03:39:04;;;;;;;;;0.00;0.00;;;;;;;;6277374;22;45449;-77
2023/03/26 03:41:29;;;;;;;;;0.00;0.00;;;;;;;;6304896;22;46516;-78
2023/03/26 03:43:54;;;;;;;;;0.00;0.00;;;;;;;;6305554;22;45325;-78
2023/03/26 03:46:20;;;;;;;;;0.00;0.00;;;;;;;;6305299;22;45261;-77
2023/03/26 03:48:48;;;;;;;;;0.00;0.00;;;;;;;;6304999;22;45262;-78
2023/03/26 03:51:14;;;;;;;;;0.00;0.00;;;;;;;;6305008;22;46250;-77
2023/03/26 03:53:39;;;;;;;;;0.00;0.00;;;;;;;;6305432;22;45291;-78
2023/03/26 03:56:08;;;;;;;;;0.00;0.00;;;;;;;;6305464;22;45526;-77
2023/03/26 03:58:34;;;;;;;;;0.75;0.00;;;;;;;;6305120;22;45396;-78
2023/03/26 04:00:59;;;;;;;;;0.00;0.00;;;;;;;;6305309;22;45514;-78
2023/03/26 04:03:26;;;;;;;;;0.00;0.00;;;;;;;;6276931;22;45323;-78
2023/03/26 04:05:53;;;;;;;;;0.00;0.00;;;;;;;;6304881;22;45214;-78
2023/03/26 04:08:19;;;;;;;;;1.00;0.00;;;;;;;;6305630;22;45216;-78
2023/03/26 04:10:45;;;;;;;;;0.00;0.00;;;;;;;;6305338;22;45561;-79
2023/03/26 04:13:11;;;;;;;;;0.00;0.00;;;;;;;;6277358;22;45826;-78
2023/03/26 04:15:36;;;;;;;;;0.00;0.00;;;;;;;;6305633;22;45209;-78
2023/03/26 04:18:01;;;;;;;;;0.00;0.00;;;;;;;;6304827;22;45313;-78
2023/03/26 04:20:27;;;;;;;;;0.00;0.00;;;;;;;;6276996;22;47585;-78
2023/03/26 04:22:52;;;;;;;;;0.00;0.00;;;;;;;;6305398;22;45384;-78
2023/03/26 04:25:17;;;;;;;;;0.00;0.00;;;;;;;;6305307;22;45334;-78
2023/03/26 04:27:43;;;;;;;;;0.00;0.00;;;;;;;;6305174;22;45418;-78
2023/03/26 04:30:14;;;;;;;;;0.00;0.00;;;;;;;;6304699;22;46334;-78
2023/03/26 04:32:41;;;;;;;;;0.00;0.00;;;;;;;;6303606;22;45600;-78
2023/03/26 04:35:07;;;;;;;;;0.00;0.00;;;;;;;;6305032;22;45286;-79
2023/03/26 04:37:34;;;;;;;;;0.00;0.00;;;;;;;;6277363;22;45305;-78
2023/03/26 04:40:00;;;;;;;;;0.00;0.00;;;;;;;;6305160;22;45453;-78
2023/03/26 04:42:25;;;;;;;;;0.00;0.00;;;;;;;;6305042;22;45379;-77
2023/03/26 04:44:51;;;;;;;;;0.00;0.00;;;;;;;;6304946;22;45426;-79
2023/03/26 04:47:16;;;;;;;;;0.00;0.00;;;;;;;;6304415;22;45398;-78
2023/03/26 04:49:42;;;;;;;;;0.00;0.00;;;;;;;;6304667;22;46021;-78
2023/03/26 04:52:09;;;;;;;;;0.00;0.00;;;;;;;;6304747;22;45228;-78
2023/03/26 04:54:35;;;;;;;;;0.75;0.00;;;;;;;;6304869;22;45227;-78
2023/03/26 04:57:02;;;;;;;;;0.00;0.00;;;;;;;;6305420;22;45206;-78
2023/03/26 04:59:29;;;;;;;;;0.00;0.00;;;;;;;;6305030;22;46280;-78
2023/03/26 05:01:58;;;;;;;;;1.00;0.00;;;;;;;;6304155;22;45703;-77
2023/03/26 05:04:25;;;;;;;;;0.00;0.00;;;;;;;;6277238;22;45278;-78
2023/03/26 05:06:51;;;;;;;;;0.00;0.00;;;;;;;;6304807;22;45375;-78
2023/03/26 05:09:16;;;;;;;;;1.00;0.00;;;;;;;;6304832;22;45905;-78
2023/03/26 05:11:41;;;;;;;;;1.00;0.00;;;;;;;;6305295;22;45288;-79
2023/03/26 05:14:07;;;;;;;;;0.00;0.00;;;;;;;;6304683;22;45242;-78
2023/03/26 05:16:33;;;;;;;;;0.00;0.00;;;;;;;;6304570;22;45425;-78
2023/03/26 05:18:58;;;;;;;;;1.00;0.00;;;;;;;;6277104;22;46317;-78
2023/03/26 05:21:24;;;;;;;;;0.00;0.00;;;;;;;;6304584;22;45478;-78
2023/03/26 05:23:49;;;;;;;;;1.67;0.00;;;;;;;;6304645;22;45333;-78
2023/03/26 05:26:15;;;;;;;;;0.00;0.00;;;;;;;;6304675;22;45393;-78
2023/03/26 05:28:40;;;;;;;;;0.00;0.00;;;;;;;;6304842;22;45261;-78
2023/03/26 05:31:07;;;;;;;;;0.00;0.00;;;;;;;;6304215;22;45221;-77
2023/03/26 05:33:32;;;;;;;;;1.25;0.00;;;;;;;;6304815;22;45823;-78
2023/03/26 05:36:08;;;;;;;;;0.00;0.00;;;;;;;;6304982;22;45247;-78
2023/03/26 05:38:34;;;;;;;;;0.00;0.00;;;;;;;;6304371;22;47396;-78
2023/03/26 05:41:00;;;;;;;;;0.00;0.00;;;;;;;;6304757;22;45681;-78
2023/03/26 05:43:26;;;;;;;;;0.00;0.00;;;;;;;;6304498;22;45343;-78
2023/03/26 05:45:51;;;;;;;;;0.00;0.00;;;;;;;;6304514;22;45311;-78
2023/03/26 05:48:17;;;;;;;;;0.00;0.00;;;;;;;;6305047;22;45308;-78
2023/03/26 05:50:42;;;;;;;;;0.00;0.00;;;;;;;;6304015;22;45500;-77
2023/03/26 05:53:07;;;;;;;;;0.33;0.00;;;;;;;;6305023;22;45358;-77
2023/03/26 05:55:33;;;;;;;;;1.00;0.00;;;;;;;;6305190;22;45381;-78
2023/03/26 05:57:58;;;;;;;;;0.50;0.00;;;;;;;;6304324;22;45508;-78
2023/03/26 06:00:24;;;;;;;;;0.00;0.00;;;;;;;;6303861;22;45430;-78
2023/03/26 06:02:49;;;;;;;;;0.00;0.00;;;;;;;;6304960;22;45508;-78
2023/03/26 06:05:14;;;;;;;;;0.00;0.00;;;;;;;;6304494;22;45448;-78
2023/03/26 06:07:40;;;;;;;;;0.00;0.00;;;;;;;;6305050;22;46376;-78
2023/03/26 06:10:05;;;;;;;;;0.00;0.00;;;;;;;;6304372;22;45216;-77
2023/03/26 06:12:30;;;;;;;;;1.00;0.00;;;;;;;;6304970;22;45261;-78
2023/03/26 06:14:56;;;;;;;;;1.00;0.00;;;;;;;;6304604;22;45397;-77
2023/03/26 06:17:21;;;;;;;;;0.00;0.00;;;;;;;;6288688;22;46256;-77
2023/03/26 06:19:46;;;;;;;;;0.00;0.00;;;;;;;;6273074;22;45323;-77
2023/03/26 06:22:12;;;;;;;;;1.75;0.00;;;;;;;;6273783;22;45266;-78
2023/03/26 06:24:37;;;;;;;;;1.00;0.00;;;;;;;;6273590;22;45380;-78
2023/03/26 06:27:02;;;;;;;;;0.00;0.00;;;;;;;;6273327;22;46163;-78
2023/03/26 06:29:27;;;;;;;;;0.00;0.00;;;;;;;;6270916;22;45335;-78
2023/03/26 06:31:52;;;;;;;;;1.33;0.00;;;;;;;;6273331;22;45227;-77
2023/03/26 06:34:18;;;;;;;;;0.00;0.00;;;;;;;;6273103;22;45433;-78
2023/03/26 06:36:43;;;;;;;;;0.00;0.00;;;;;;;;6273401;22;45210;-77
2023/03/26 06:39:08;;;;;;;;;0.00;0.00;;;;;;;;6273452;22;45408;-78
2023/03/26 06:41:33;;;;;;;;;0.00;0.00;;;;;;;;6273129;22;45324;-77
2023/03/26 06:43:59;;;;;;;;;1.25;0.25;;;;;;;;6272767;22;45425;-77
2023/03/26 06:46:24;;;;;;;;;1.00;0.00;;;;;;;;6272807;22;45208;-77
2023/03/26 06:48:50;;;;;;;;;2.25;0.00;;;;;;;;6273456;22;45296;-78
2023/03/26 06:51:16;;;;;;;;;1.00;0.00;;;;;;;;6272824;22;45309;-78
2023/03/26 06:53:41;;;;;;;;;0.00;0.00;;;;;;;;6272893;22;45428;-77
2023/03/26 06:56:06;;;;;;;;;0.00;0.00;;;;;;;;6270330;22;46250;-77
2023/03/26 06:58:32;;;;;;;;;0.00;0.00;;;;;;;;6273750;22;45420;-77
2023/03/26 07:00:57;;;;;;;;;0.00;0.00;;;;;;;;6274081;22;45183;-77
2023/03/26 07:03:22;;;;;;;;;0.00;0.00;;;;;;;;6274146;22;45250;-78
2023/03/26 07:05:47;;;;;;;;;1.00;0.00;;;;;;;;6274370;22;46122;-77
2023/03/26 07:08:13;;;;;;;;;2.50;0.00;;;;;;;;6274014;22;45271;-78
2023/03/26 07:10:38;;;;;;;;;5.00;0.00;;;;;;;;6273784;22;45302;-78
2023/03/26 07:13:04;;;;;;;;;0.00;0.00;;;;;;;;6274102;22;45196;-77
2023/03/26 07:15:29;;;;;;;;;0.75;0.00;;;;;;;;6274470;22;46368;-78
2023/03/26 07:17:55;;;;;;;;;0.50;0.00;;;;;;;;6273851;22;45290;-77
2023/03/26 07:20:20;;;;;;;;;0.00;0.00;;;;;;;;6274081;22;45284;-77
2023/03/26 07:22:46;;;;;;;;;0.50;0.00;;;;;;;;6274401;22;45287;-78
2023/03/26 07:25:11;;;;;;;;;2.00;0.75;;;;;;;;6274226;22;46113;-76
2023/03/26 07:27:45;;;;;;;;;1.00;0.00;;;;;;;;6273480;22;45553;-77
2023/03/26 07:30:18;;;;;;;;;0.00;0.00;;;;;;;;6273963;22;45203;-77
2023/03/26 07:32:51;;;;;;;;;1.75;1.00;;;;;;;;6273394;22;45572;-77
2023/03/26 07:35:26;;;;;;;;;5.00;0.00;;;;;;;;6273349;22;47911;-77
2023/03/26 07:37:55;;;;;;;;;0.00;0.00;;;;;;;;6274332;22;45245;-77
2023/03/26 07:40:39;;;;;;;;;1.00;1.00;;;;;;;;6273555;22;45292;-77
2023/03/26 07:43:13;;;;;;;;;2.00;0.00;;;;;;;;6273968;22;45433;-77
2023/03/26 07:45:40;;;;;;;;;1.00;1.00;;;;;;;;6273745;22;47948;-77
2023/03/26 07:48:18;;;;;;;;;0.00;0.00;;;;;;;;6246513;22;45819;-77
2023/03/26 07:50:44;;;;;;;;;0.00;0.00;;;;;;;;6273627;22;45255;-77
2023/03/26 07:53:09;;;;;;;;;2.00;0.00;;;;;;;;6273789;22;45373;-77
2023/03/26 07:55:42;;;;;;;;;0.00;0.00;;;;;;;;6273751;22;45512;-76
2023/03/26 07:58:26;;;;;;;;;1.50;0.00;;;;;;;;6273830;22;45156;-77
2023/03/26 08:00:55;;;;;;;;;1.00;0.00;;;;;;;;6273763;22;45191;-77
2023/03/26 08:03:26;;;;;;;;;2.00;0.00;;;;;;;;6271085;22;45338;-77
2023/03/26 08:06:02;;;;;;;;;5.00;0.00;;;;;;;;6270998;22;47005;-77
2023/03/26 08:08:44;;;;;;;;;0.00;0.00;;;;;;;;6273546;22;45235;-77
2023/03/26 08:11:28;;;;;;;;;0.00;0.00;;;;;;;;6273360;22;45270;-77
2023/03/26 08:13:57;;;;;;;;;2.50;0.00;;;;;;;;6274140;22;45321;-77
2023/03/26 08:16:22;;;;;;;;;0.00;0.00;;;;;;;;6276426;22;46240;-77
2023/03/26 08:19:10;;;;;;;;;0.67;0.00;;;;;;;;6304981;22;45402;-77
2023/03/26 08:21:46;;;;;;;;;0.00;0.00;;;;;;;;6244887;22;45353;-78
2023/03/26 08:24:36;;;;;;;;;1.50;0.75;;;;;;;;6270985;22;45300;-77
2023/03/26 08:27:01;;;;;;;;;3.50;0.00;;;;;;;;6262643;22;45456;-77
2023/03/26 08:29:43;;;;;;;;;2.67;0.00;;;;;;;;6271213;22;45246;-78
2023/03/26 08:32:12;;;;;;;;;1.00;0.00;;;;;;;;6271093;22;45381;-77
2023/03/26 08:34:37;;;;;;;;;0.00;0.00;;;;;;;;6270620;22;45440;-77
2023/03/26 08:37:03;;;;;;;;;0.33;0.00;;;;;;;;6271050;22;46291;-77
2023/03/26 08:39:29;;;;;;;;;0.50;0.00;;;;;;;;6270690;22;45297;-77
2023/03/26 08:42:09;;;;;;;;;3.75;0.00;;;;;;;;6271129;22;45294;-77
2023/03/26 08:44:35;;;;;;;;;1.00;0.00;;;;;;;;6271350;22;45377;-76
2023/03/26 08:47:00;;;;;;;;;1.50;0.00;;;;;;;;6244961;22;48213;-77
2023/03/26 08:49:43;;;;;;;;;0.00;0.00;;;;;;;;6245115;22;45363;-77
2023/03/26 08:52:17;;;;;;;;;2.00;0.00;;;;;;;;6271234;22;45278;-77
2023/03/26 08:54:42;;;;;;;;;1.00;0.00;;;;;;;;6244619;22;45359;-77
2023/03/26 08:57:07;;;;;;;;;0.33;0.33;;;;;;;;6270730;22;47076;-77
2023/03/26 08:59:53;;;;;;;;;0.00;0.00;;;;;;;;6295998;22;45646;-77
2023/03/26 09:02:39;;;;;;;;;1.00;0.00;;;;;;;;6304432;22;45295;-78
2023/03/26 09:05:20;;;;;;;;;0.00;0.00;;;;;;;;6305360;22;45333;-77
2023/03/26 09:08:04;;;;;;;;;1.00;0.00;;;;;;;;6304502;22;46343;-77
2023/03/26 09:10:32;;;;;;;;;0.00;0.00;;;;;;;;6305293;22;45262;-78
2023/03/26 09:12:57;;;;;;;;;0.00;0.00;;;;;;;;6305373;22;45312;-78
2023/03/26 09:15:26;;;;;;;;;0.00;0.00;;;;;;;;6305202;22;45301;-77
2023/03/26 09:17:51;;;;;;;;;1.00;0.00;;;;;;;;6304389;22;46521;-78
2023/03/26 09:20:28;;;;;;;;;0.67;0.00;;;;;;;;6304837;22;45228;-77
2023/03/26 09:22:53;;;;;;;;;0.00;0.00;;;;;;;;6304412;22;45250;-77
2023/03/26 09:25:41;;;;;;;;;0.00;0.00;;;;;;;;6304800;22;45226;-77
2023/03/26 09:28:20;;;;;;;;;0.00;0.00;;;;;;;;6304670;22;45352;-78
2023/03/26 09:30:52;;;;;;;;;0.00;0.00;;;;;;;;6304953;22;45541;-78
2023/03/26 09:33:20;;;;;;;;;0.50;0.50;;;;;;;;6304730;22;45332;-78
2023/03/26 09:35:51;;;;;;;;;0.75;0.00;;;;;;;;6304819;22;45478;-77
2023/03/26 09:38:35;;;;;;;;;0.00;0.00;;;;;;;;6304137;22;46156;-77
2023/03/26 09:41:09;;;;;;;;;6.00;0.00;;;;;;;;6304370;22;45718;-78
2023/03/26 09:43:40;;;;;;;;;0.50;0.00;;;;;;;;6304697;22;45380;-78
2023/03/26 09:46:15;;;;;;;;;0.00;0.00;;;;;;;;6305053;22;45261;-78
2023/03/26 09:48:40;;;;;;;;;1.00;0.00;;;;;;;;6304835;22;45572;-78
2023/03/26 09:51:11;;;;;;;;;0.00;0.00;;;;;;;;6302421;22;45519;-79
2023/03/26 09:53:37;;;;;;;;;0.00;0.00;;;;;;;;6303141;22;45359;-77
2023/03/26 09:56:12;;;;;;;;;0.00;0.00;;;;;;;;6304514;22;45360;-78
2023/03/26 09:58:49;;;;;;;;;0.00;0.00;;;;;;;;6304278;22;46275;-77
2023/03/26 10:01:30;;;;;;;;;0.00;0.00;;;;;;;;6304875;22;45435;-77
2023/03/26 10:04:11;;;;;;;;;0.00;0.00;;;;;;;;6305027;22;45332;-77
2023/03/26 10:06:39;;;;;;;;;0.00;0.00;;;;;;;;6304002;22;45250;-77
2023/03/26 10:09:06;;;;;;;;;0.50;0.00;;;;;;;;6304797;22;46487;-78
2023/03/26 10:11:32;;;;;;;;;0.00;0.00;;;;;;;;6304346;22;45637;-77
2023/03/26 10:14:19;;;;;;;;;0.00;0.00;;;;;;;;6302968;22;45337;-77
2023/03/26 10:17:03;;;;;;;;;0.00;0.00;;;;;;;;6304868;22;45330;-77
2023/03/26 10:19:32;;;;;;;;;0.00;0.00;;;;;;;;6303868;22;46102;-77
2023/03/26 10:22:08;;;;;;;;;0.00;0.00;;;;;;;;6304293;22;45651;-78
2023/03/26 10:24:39;;;;;;;;;0.00;0.00;;;;;;;;6304571;22;45217;-77
2023/03/26 10:27:23;;;;;;;;;1.00;0.00;;;;;;;;6304796;22;45370;-78
2023/03/26 10:30:00;;;;;;;;;0.00;0.00;;;;;;;;6304176;22;46589;-77
2023/03/26 10:32:26;;;;;;;;;0.00;0.00;;;;;;;;6305827;22;45257;-78
2023/03/26 10:34:54;;;;;;;;;0.00;0.00;;;;;;;;6305157;22;45262;-77
2023/03/26 10:37:38;;;;;;;;;0.00;0.00;;;;;;;;6305559;22;45187;-77
2023/03/26 10:40:06;;;;;;;;;1.00;0.00;;;;;;;;6305103;22;45419;-78
2023/03/26 10:42:50;;;;;;;;;2.50;0.00;;;;;;;;6305678;22;45639;-78
2023/03/26 10:45:27;;;;;;;;;0.00;0.00;;;;;;;;6305472;22;45323;-78
2023/03/26 10:47:53;;;;;;;;;3.75;0.00;;;;;;;;6305532;22;45398;-78
2023/03/26 10:50:22;;;;;;;;;1.00;0.00;;;;;;;;6303297;22;46013;-78
2023/03/26 10:52:47;;;;;;;;;0.00;0.00;;;;;;;;6305819;22;45546;-78
2023/03/26 10:55:18;;;;;;;;;0.00;0.00;;;;;;;;6306140;22;45254;-78
2023/03/26 10:57:55;;;;;;;;;0.00;0.00;;;;;;;;6306109;22;45509;-78
2023/03/26 11:00:24;;;;;;;;;0.00;0.00;;;;;;;;6305377;22;46598;-78
2023/03/26 11:03:10;;;;;;;;;1.00;0.00;;;;;;;;6305297;22;45312;-78
2023/03/26 11:05:46;;;;;;;;;0.00;0.00;;;;;;;;6305406;22;45358;-78
2023/03/26 11:08:29;;;;;;;;;0.00;0.00;;;;;;;;6305924;22;45402;-78
2023/03/26 11:10:54;;;;;;;;;0.00;0.00;;;;;;;;6305774;22;46236;-78
2023/03/26 11:13:25;;;;;;;;;1.00;0.00;;;;;;;;6305241;22;45205;-78
2023/03/26 11:16:04;;;;;;;;;0.00;0.00;;;;;;;;6305346;22;45184;-78
2023/03/26 11:18:48;;;;;;;;;2.00;0.00;;;;;;;;6305044;22;45586;-78
2023/03/26 11:21:25;;;;;;;;;0.00;0.00;;;;;;;;6304950;22;47553;-78
2023/03/26 11:23:50;;;;;;;;;0.00;0.00;;;;;;;;6305634;22;45344;-78
2023/03/26 11:26:24;;;;;;;;;0.67;0.00;;;;;;;;6305620;22;45292;-78
2023/03/26 11:29:03;;;;;;;;;0.00;0.00;;;;;;;;6305482;22;45436;-78
2023/03/26 11:31:48;;;;;;;;;0.00;0.00;;;;;;;;6305669;22;46112;-79
2023/03/26 11:34:16;;;;;;;;;0.00;0.00;;;;;;;;6298257;22;45471;-78
2023/03/26 11:36:46;;;;;;;;;0.00;0.00;;;;;;;;6305368;22;45319;-79
2023/03/26 11:39:14;;;;;;;;;1.00;0.00;;;;;;;;6303583;22;45274;-78
2023/03/26 11:41:40;;;;;;;;;0.00;0.00;;;;;;;;6305069;22;45445;-78
2023/03/26 11:44:12;;;;;;;;;1.00;0.00;;;;;;;;6305233;22;45248;-79
2023/03/26 11:46:40;;;;;;;;;0.00;0.00;;;;;;;;6305270;22;45303;-79
2023/03/26 11:49:09;;;;;;;;;0.00;0.00;;;;;;;;6305865;22;45454;-78
2023/03/26 11:51:35;;;;;;;;;0.00;0.00;;;;;;;;6304902;22;46132;-79
2023/03/26 11:54:02;;;;;;;;;0.25;0.00;;;;;;;;6304904;22;45369;-79
2023/03/26 11:56:32;;;;;;;;;0.00;0.00;;;;;;;;6305140;22;45197;-79
2023/03/26 11:59:00;;;;;;;;;0.00;0.00;;;;;;;;6305310;22;45218;-79
2023/03/26 12:01:29;;;;;;;;;2.00;0.00;;;;;;;;6304753;22;45460;-79
2023/03/26 12:03:55;;;;;;;;;0.00;0.00;;;;;;;;6305025;22;45519;-79
2023/03/26 12:06:24;;;;;;;;;0.00;0.00;;;;;;;;6305640;22;45425;-79
2023/03/26 12:08:50;;;;;;;;;0.00;0.00;;;;;;;;6305615;22;45293;-79
2023/03/26 12:11:24;;;;;;;;;0.25;0.00;;;;;;;;6304799;22;45296;-79
2023/03/26 12:13:55;;;;;;;;;0.00;0.00;;;;;;;;6305039;22;45492;-79
2023/03/26 12:16:20;;;;;;;;;0.00;0.00;;;;;;;;6304451;22;45257;-78
2023/03/26 12:18:56;;;;;;;;;0.00;0.00;;;;;;;;6303482;22;45317;-78
2023/03/26 12:21:22;;;;;;;;;0.00;0.00;;;;;;;;6305201;22;45476;-78
2023/03/26 12:23:56;;;;;;;;;0.00;0.00;;;;;;;;6305571;22;45226;-79
2023/03/26 12:26:41;;;;;;;;;0.00;0.00;;;;;;;;6305145;22;45210;-80
2023/03/26 12:29:14;;;;;;;;;0.00;0.00;;;;;;;;6305528;22;45452;-78
2023/03/26 12:31:41;;;;;;;;;0.00;0.00;;;;;;;;6305010;22;46696;-79
2023/03/26 12:34:12;;;;;;;;;0.00;0.00;;;;;;;;6304872;22;45308;-79
2023/03/26 12:36:38;;;;;;;;;0.00;0.00;;;;;;;;6305146;22;45248;-79
2023/03/26 12:39:23;;;;;;;;;0.00;0.00;;;;;;;;6305531;22;45462;-79
2023/03/26 12:41:58;;;;;;;;;0.00;0.00;;;;;;;;6304709;22;46520;-78
2023/03/26 12:44:24;;;;;;;;;0.75;0.00;;;;;;;;6304896;22;45292;-78
2023/03/26 12:46:52;;;;;;;;;0.00;0.00;;;;;;;;6305139;22;45306;-78
2023/03/26 12:49:18;;;;;;;;;0.00;0.00;;;;;;;;6304873;22;45457;-78
2023/03/26 12:51:50;;;;;;;;;0.00;0.00;;;;;;;;6305264;22;46447;-78
2023/03/26 12:54:24;;;;;;;;;1.00;0.00;;;;;;;;6304014;22;45518;-78
2023/03/26 12:57:08;;;;;;;;;0.50;0.00;;;;;;;;6305591;22;45413;-78
2023/03/26 12:59:39;;;;;;;;;0.00;0.00;;;;;;;;6304455;22;45431;-78
2023/03/26 13:02:15;;;;;;;;;0.00;0.00;;;;;;;;6304513;22;46646;-79
2023/03/26 13:04:59;;;;;;;;;1.00;0.00;;;;;;;;6304619;22;45503;-78
2023/03/26 13:07:43;;;;;;;;;0.00;0.00;;;;;;;;6304987;22;45340;-79
2023/03/26 13:10:18;;;;;;;;;0.00;0.00;;;;;;;;6304733;22;45290;-78
2023/03/26 13:13:02;;;;;;;;;1.00;0.00;;;;;;;;6304626;22;47316;-79
2023/03/26 13:15:31;;;;;;;;;0.00;0.00;;;;;;;;6304756;22;45234;-79
2023/03/26 13:18:06;;;;;;;;;0.00;0.00;;;;;;;;6304779;22;45292;-79
2023/03/26 13:20:43;;;;;;;;;1.00;0.00;;;;;;;;6304978;22;45262;-78
2023/03/26 13:23:18;;;;;;;;;1.00;0.00;;;;;;;;6304535;22;46418;-78
2023/03/26 13:25:52;;;;;;;;;0.00;0.00;;;;;;;;6304709;22;45613;-78
2023/03/26 13:28:42;;;;;;;;;2.00;0.00;;;;;;;;6304353;22;45274;-77
2023/03/26 13:31:18;;;;;;;;;0.00;0.00;;;;;;;;6304683;22;45438;-77
2023/03/26 13:33:52;;;;;;;;;0.00;0.00;;;;;;;;6304514;22;45553;-77
2023/03/26 13:36:25;;;;;;;;;0.00;0.00;;;;;;;;6305164;22;45454;-78
2023/03/26 13:39:06;;;;;;;;;0.00;0.00;;;;;;;;6304857;22;45229;-77
2023/03/26 13:41:40;;;;;;;;;0.00;0.00;;;;;;;;6304573;22;45499;-78
2023/03/26 13:44:24;;;;;;;;;0.00;0.00;;;;;;;;6304422;22;45557;-79
2023/03/26 13:47:06;;;;;;;;;0.00;0.00;;;;;;;;6304452;22;45558;-78
2023/03/26 13:49:36;;;;;;;;;0.00;0.00;;;;;;;;6305302;22;45405;-78
2023/03/26 13:52:07;;;;;;;;;0.00;0.00;;;;;;;;6304779;22;45315;-78
2023/03/26 13:54:43;;;;;;;;;0.00;0.00;;;;;;;;6304862;22;46027;-78
2023/03/26 13:57:12;;;;;;;;;1.00;0.00;;;;;;;;6303989;22;45210;-78
2023/03/26 13:59:39;;;;;;;;;0.00;0.00;;;;;;;;6304625;22;45201;-79
2023/03/26 14:02:09;;;;;;;;;1.00;0.00;;;;;;;;6304808;22;45372;-79
2023/03/26 14:04:39;;;;;;;;;0.25;0.00;;;;;;;;6303902;22;46307;-79
2023/03/26 14:07:11;;;;;;;;;0.00;0.00;;;;;;;;6304941;22;45505;-78
2023/03/26 14:09:50;;;;;;;;;0.00;0.00;;;;;;;;6304463;22;45268;-76
2023/03/26 14:12:32;;;;;;;;;1.00;0.00;;;;;;;;6303958;22;45399;-78
2023/03/26 14:14:58;;;;;;;;;0.00;0.00;;;;;;;;6304137;22;46705;-77
2023/03/26 14:17:25;;;;;;;;;0.00;0.00;;;;;;;;6304629;22;45281;-76
2023/03/26 14:19:53;;;;;;;;;0.00;0.00;;;;;;;;6304768;22;45269;-77
2023/03/26 14:22:21;;;;;;;;;1.00;0.00;;;;;;;;6304501;22;45447;-77
2023/03/26 14:24:58;;;;;;;;;0.00;0.00;;;;;;;;6304363;22;45342;-77
2023/03/26 14:27:29;;;;;;;;;0.00;0.00;;;;;;;;6303611;22;45280;-77
2023/03/26 14:30:14;;;;;;;;;0.00;0.00;;;;;;;;6304204;22;45278;-77
2023/03/26 14:32:48;;;;;;;;;0.00;0.00;;;;;;;;6304144;22;45394;-77
2023/03/26 14:35:23;;;;;;;;;0.00;0.00;;;;;;;;6303889;22;45526;-76
2023/03/26 14:38:06;;;;;;;;;1.00;0.00;;;;;;;;6304080;22;45304;-77
2023/03/26 14:40:32;;;;;;;;;0.00;0.00;;;;;;;;6303884;22;45228;-77
2023/03/26 14:43:12;;;;;;;;;0.00;0.00;;;;;;;;6304780;22;45333;-77
2023/03/26 14:45:44;;;;;;;;;0.25;0.00;;;;;;;;6304389;22;45323;-77
2023/03/26 14:48:18;;;;;;;;;0.75;0.00;;;;;;;;6304659;22;45606;-78
2023/03/26 14:51:00;;;;;;;;;0.00;0.00;;;;;;;;6304520;22;45292;-78
2023/03/26 14:53:41;;;;;;;;;0.00;0.00;;;;;;;;6304670;22;45328;-78
2023/03/26 14:56:09;;;;;;;;;0.25;0.00;;;;;;;;6303251;22;47115;-78
2023/03/26 14:59:03;;;;;;;;;0.00;0.00;;;;;;;;6303946;22;45515;-78
2023/03/26 15:01:48;;;;;;;;;0.25;0.00;;;;;;;;6304289;22;45419;-78